Time;durP1;ratioP1;P1;durP2;ratioP2;P2;SDS_P1;SDS_P2;PMS_P1;PMS_P2;Temp;Humidity;BMP_temperature;BMP_pressure;BME280_temperature;BME280_humidity;BME280_pressure;Samples;Min_cycle;Max_cycle;Signal;HPM_P1;HPM_P2
2021/07/05 00:01:11;;;;;;;6.17;5.58;;;;;;;22.83;74.61;99698.72;1834827;77;20863;-72
2021/07/05 00:03:38;;;;;;;6.05;5.47;;;;;;;22.83;74.67;99702.73;1834907;77;20914;-72
2021/07/05 00:06:05;;;;;;;8.88;5.33;;;;;;;22.85;74.51;99698.53;1835217;77;21494;-72
2021/07/05 00:08:32;;;;;;;8.15;5.30;;;;;;;22.85;74.55;99707.38;1834763;78;20902;-71
2021/07/05 00:10:59;;;;;;;6.17;5.67;;;;;;;22.86;74.41;99705.55;1834951;78;20875;-72
2021/07/05 00:13:26;;;;;;;7.60;6.40;;;;;;;22.87;74.53;99704.52;1834809;77;21594;-71
2021/07/05 00:15:54;;;;;;;7.15;6.00;;;;;;;22.86;74.44;99701.02;1834847;77;20856;-72
2021/07/05 00:18:22;;;;;;;6.40;5.67;;;;;;;22.87;74.57;99693.82;1834917;77;21138;-71
2021/07/05 00:20:49;;;;;;;6.58;5.08;;;;;;;22.87;74.61;99691.97;1835283;77;20863;-73
2021/07/05 00:23:18;;;;;;;8.33;5.90;;;;;;;22.88;74.63;99694.16;1834960;76;20946;-72
2021/07/05 00:25:45;;;;;;;7.87;5.22;;;;;;;22.87;74.81;99694.64;1835289;77;20977;-73
2021/07/05 00:28:11;;;;;;;10.40;5.92;;;;;;;22.86;74.83;99705.03;1834922;77;20891;-72
2021/07/05 00:30:39;;;;;;;9.23;5.62;;;;;;;22.87;74.91;99699.98;1835470;77;21777;-71
2021/07/05 00:33:08;;;;;;;9.10;5.37;;;;;;;22.86;74.92;99701.54;1834811;77;20950;-72
2021/07/05 00:35:35;;;;;;;6.40;5.85;;;;;;;22.86;74.96;99697.53;1834977;77;20823;-73
2021/07/05 00:38:02;;;;;;;10.60;5.60;;;;;;;22.86;75.01;99701.54;1834945;77;20851;-71
2021/07/05 00:40:29;;;;;;;9.53;6.17;;;;;;;22.84;75.07;99695.04;1848709;77;21033;-71
2021/07/05 00:42:56;;;;;;;6.08;5.20;;;;;;;22.83;75.18;99693.89;1859967;76;21522;-72
2021/07/05 00:45:24;;;;;;;9.28;5.62;;;;;;;22.82;75.21;99693.07;1859985;77;20879;-73
2021/07/05 00:47:51;;;;;;;6.90;5.50;;;;;;;22.81;75.33;99694.59;1860478;77;20891;-73
2021/07/05 00:50:19;;;;;;;8.43;6.30;;;;;;;22.80;75.41;99692.44;1859968;76;20888;-73
2021/07/05 00:52:50;;;;;;;7.62;5.47;;;;;;;22.79;75.40;99689.95;1860365;77;20956;-73
2021/07/05 00:55:18;;;;;;;6.30;5.80;;;;;;;22.77;75.51;99686.16;1860043;76;21124;-74
2021/07/05 00:57:45;;;;;;;8.35;5.25;;;;;;;22.75;75.55;99676.16;1860301;77;20852;-73
2021/07/05 01:00:15;;;;;;;6.95;6.17;;;;;;;22.72;75.67;99672.03;1860064;77;20867;-73
2021/07/05 01:02:43;;;;;;;9.23;5.60;;;;;;;22.72;75.78;99665.84;1860347;77;20922;-74
2021/07/05 01:05:11;;;;;;;6.62;5.72;;;;;;;22.72;75.83;99661.83;1860119;77;20915;-72
2021/07/05 01:07:38;;;;;;;5.60;4.97;;;;;;;22.71;75.86;99666.36;1860362;77;21162;-73
2021/07/05 01:10:06;;;;;;;6.55;5.95;;;;;;;22.70;75.86;99664.72;1860090;77;21369;-73
2021/07/05 01:12:35;;;;;;;8.78;6.17;;;;;;;22.70;75.97;99668.73;1860009;77;20863;-72
2021/07/05 01:15:03;;;;;;;8.45;6.03;;;;;;;22.70;75.97;99667.39;1859908;77;21425;-72
2021/07/05 01:17:30;;;;;;;9.93;5.80;;;;;;;22.70;76.04;99672.73;1860372;77;20954;-72
2021/07/05 01:19:57;;;;;;;10.40;5.40;;;;;;;22.69;76.09;99667.06;1860067;76;22125;-72
2021/07/05 01:22:24;;;;;;;9.25;5.47;;;;;;;22.69;76.07;99664.39;1859887;76;20902;-72
2021/07/05 01:24:51;;;;;;;6.83;5.50;;;;;;;22.71;76.03;99666.88;1860020;76;20903;-72
2021/07/05 01:27:18;;;;;;;5.80;5.00;;;;;;;22.70;75.95;99665.20;1860404;77;20951;-72
2021/07/05 01:29:45;;;;;;;8.45;5.97;;;;;;;22.69;75.93;99667.06;1860377;77;21376;-73
2021/07/05 01:32:14;;;;;;;6.47;4.90;;;;;;;22.69;76.03;99664.91;1860715;77;21107;-72
2021/07/05 01:34:41;;;;;;;9.43;5.75;;;;;;;22.70;76.15;99657.19;1860287;77;21575;-73
2021/07/05 01:37:10;;;;;;;6.97;6.25;;;;;;;22.68;76.14;99660.08;1860309;77;20951;-73
2021/07/05 01:39:37;;;;;;;7.20;6.50;;;;;;;22.69;75.98;99656.38;1859324;77;20946;-73
2021/07/05 01:42:06;;;;;;;6.45;5.95;;;;;;;22.69;75.99;99658.22;1849386;76;21371;-73
2021/07/05 01:44:33;;;;;;;12.50;5.78;;;;;;;22.68;75.98;99650.72;1849203;77;22016;-74
2021/07/05 01:47:00;;;;;;;6.90;6.12;;;;;;;22.67;76.30;99646.38;1849166;77;20941;-73
2021/07/05 01:49:28;;;;;;;10.32;5.75;;;;;;;22.65;76.34;99650.27;1849288;77;21437;-72
2021/07/05 01:51:54;;;;;;;6.00;5.45;;;;;;;22.64;76.29;99660.14;1849277;77;20906;-73
2021/07/05 01:54:21;;;;;;;8.10;5.87;;;;;;;22.60;76.21;99660.21;1849705;77;20984;-74
2021/07/05 01:56:50;;;;;;;6.03;4.75;;;;;;;22.56;76.24;99659.77;1849376;77;21085;-73
2021/07/05 01:59:16;;;;;;;6.65;5.83;;;;;;;22.53;76.32;99666.84;1849382;77;20928;-74
2021/07/05 02:01:44;;;;;;;6.78;6.00;;;;;;;22.51;76.52;99654.70;1849251;77;20900;-72
2021/07/05 02:04:10;;;;;;;5.58;4.90;;;;;;;22.49;76.63;99650.05;1849619;77;20921;-73
2021/07/05 02:06:37;;;;;;;9.08;5.92;;;;;;;22.50;76.53;99654.36;1849237;77;20928;-74
2021/07/05 02:09:06;;;;;;;5.70;5.20;;;;;;;22.48;76.55;99654.58;1849342;77;21028;-73
2021/07/05 02:11:35;;;;;;;7.97;6.05;;;;;;;22.49;76.84;99647.38;1849176;77;20822;-73
2021/07/05 02:14:05;;;;;;;9.50;6.00;;;;;;;22.47;77.04;99646.23;1849148;77;20870;-74
2021/07/05 02:16:32;;;;;;;8.40;5.97;;;;;;;22.48;77.19;99642.55;1849204;77;20893;-73
2021/07/05 02:18:59;;;;;;;7.55;5.33;;;;;;;22.47;77.12;99641.41;1849631;76;20850;-73
2021/07/05 02:21:26;;;;;;;8.00;5.55;;;;;;;22.46;77.12;99642.44;1849396;77;20854;-71
2021/07/05 02:23:53;;;;;;;6.15;5.55;;;;;;;22.44;77.36;99639.95;1849609;77;20975;-72
2021/07/05 02:26:20;;;;;;;5.78;4.97;;;;;;;22.46;77.51;99649.12;1849404;77;20846;-72
2021/07/05 02:28:47;;;;;;;8.70;5.65;;;;;;;22.45;77.66;99652.79;1849723;77;21414;-71
2021/07/05 02:31:14;;;;;;;7.10;5.45;;;;;;;22.45;77.71;99647.45;1849427;77;20877;-73
2021/07/05 02:33:41;;;;;;;8.95;5.55;;;;;;;22.44;77.84;99657.31;1849681;76;21141;-73
2021/07/05 02:36:10;;;;;;;7.17;6.47;;;;;;;22.42;77.97;99661.20;1849415;77;20909;-70
2021/07/05 02:38:37;;;;;;;6.58;5.97;;;;;;;22.40;77.95;99671.25;1849704;77;20889;-72
2021/07/05 02:41:05;;;;;;;6.90;6.20;;;;;;;22.39;77.94;99673.11;1841593;77;20907;-72
2021/07/05 02:43:31;;;;;;;7.92;6.17;;;;;;;22.39;77.62;99662.91;1835318;76;20875;-71
2021/07/05 02:45:58;;;;;;;9.18;7.08;;;;;;;22.38;77.62;99672.77;1835073;77;21103;-71
2021/07/05 02:48:27;;;;;;;6.75;6.15;;;;;;;22.39;77.67;99669.09;1834839;78;20883;-73
2021/07/05 02:50:58;;;;;;;6.20;5.60;;;;;;;22.41;77.92;99667.55;1835225;77;20895;-72
2021/07/05 02:53:26;;;;;;;7.20;6.50;;;;;;;22.45;77.63;99666.15;1834834;77;20883;-73
2021/07/05 02:55:53;;;;;;;8.90;6.75;;;;;;;22.45;77.38;99667.48;1835232;77;20898;-72
2021/07/05 02:58:20;;;;;;;10.05;6.35;;;;;;;22.46;77.25;99671.31;1834949;77;21872;-73
2021/07/05 03:00:51;;;;;;;7.25;6.55;;;;;;;22.48;77.09;99677.81;1835184;77;20835;-73
2021/07/05 03:03:18;;;;;;;7.05;6.25;;;;;;;22.50;76.81;99687.77;1835439;76;20883;-72
2021/07/05 03:05:45;;;;;;;6.97;6.03;;;;;;;22.53;76.65;99684.73;1835038;77;20843;-72
2021/07/05 03:08:12;;;;;;;7.78;6.97;;;;;;;22.56;76.43;99682.47;1835410;77;20993;-71
2021/07/05 03:10:40;;;;;;;6.92;6.22;;;;;;;22.60;76.24;99682.92;1835097;77;21059;-71
2021/07/05 03:13:11;;;;;;;6.95;6.28;;;;;;;22.64;76.29;99678.03;1835366;76;20835;-72
2021/07/05 03:15:40;;;;;;;9.80;5.83;;;;;;;22.68;75.70;99684.12;1835158;77;20882;-73
2021/07/05 03:18:07;;;;;;;6.85;6.35;;;;;;;22.71;75.54;99679.72;1835350;77;20840;-73
2021/07/05 03:20:44;;;;;;;8.45;6.10;;;;;;;22.75;75.30;99680.98;1834980;77;20875;-74
2021/07/05 03:23:12;;;;;;;7.65;6.87;;;;;;;22.80;75.13;99676.39;1835415;76;21760;-73
2021/07/05 03:25:39;;;;;;;7.00;6.30;;;;;;;22.84;74.75;99679.52;1835031;76;21384;-75
2021/07/05 03:28:08;;;;;;;8.75;7.12;;;;;;;22.86;74.55;99665.45;1835370;78;20910;-72
2021/07/05 03:30:36;;;;;;;8.03;7.22;;;;;;;22.88;74.37;99662.07;1835051;77;20867;-72
2021/07/05 03:33:03;;;;;;;7.75;6.15;;;;;;;22.91;73.89;99655.80;1835456;76;20863;-74
2021/07/05 03:35:31;;;;;;;8.53;7.17;;;;;;;22.94;73.88;99666.13;1835094;77;21116;-74
2021/07/05 03:37:58;;;;;;;11.15;7.80;;;;;;;22.97;73.81;99670.25;1835383;77;21356;-74
2021/07/05 03:40:30;;;;;;;8.38;7.45;;;;;;;22.99;73.40;99674.89;1838395;75;20922;-74
2021/07/05 03:42:58;;;;;;;8.10;7.30;;;;;;;23.00;73.30;99667.72;1860703;77;20828;-73
2021/07/05 03:45:28;;;;;;;9.23;7.22;;;;;;;23.03;73.15;99665.98;1860233;77;20888;-74
2021/07/05 03:47:56;;;;;;;11.53;7.08;;;;;;;23.05;73.14;99660.73;1860837;76;21139;-73
2021/07/05 03:50:24;;;;;;;8.55;7.75;;;;;;;23.09;73.27;99655.31;1860237;77;21018;-74
2021/07/05 03:52:51;;;;;;;7.25;6.55;;;;;;;23.14;73.06;99651.56;1860404;76;20911;-73
2021/07/05 03:55:21;;;;;;;8.18;7.33;;;;;;;23.18;72.61;99653.31;1860536;77;20926;-73
2021/07/05 03:57:49;;;;;;;7.58;6.92;;;;;;;23.23;72.31;99652.71;1860654;76;21412;-72
2021/07/05 04:00:21;;;;;;;6.67;6.10;;;;;;;23.26;72.11;99642.45;1860258;76;21068;-73
2021/07/05 04:02:48;;;;;;;7.35;6.53;;;;;;;23.32;71.91;99647.02;1860204;77;20868;-74
2021/07/05 04:05:15;;;;;;;7.87;6.80;;;;;;;23.40;71.63;99646.52;1860517;77;21341;-73
2021/07/05 04:07:42;;;;;;;7.22;6.53;;;;;;;23.45;71.60;99655.59;1860236;77;20891;-73
2021/07/05 04:10:10;;;;;;;9.10;6.53;;;;;;;23.53;71.40;99659.95;1860511;77;21334;-73
2021/07/05 04:12:37;;;;;;;10.08;7.65;;;;;;;23.63;71.20;99655.55;1860502;76;21086;-73
2021/07/05 04:15:05;;;;;;;8.08;6.08;;;;;;;23.80;70.91;99656.88;1860242;77;20840;-71
2021/07/05 04:17:32;;;;;;;6.72;6.03;;;;;;;24.10;70.36;99656.52;1860574;76;20883;-73
2021/07/05 04:19:59;;;;;;;7.35;6.42;;;;;;;24.49;69.29;99650.91;1860444;76;20923;-73
2021/07/05 04:22:27;;;;;;;9.88;5.92;;;;;;;24.92;68.34;99649.09;1860227;77;20884;-73
2021/07/05 04:24:54;;;;;;;6.97;6.28;;;;;;;25.38;66.86;99648.98;1860516;76;21093;-73
2021/07/05 04:27:21;;;;;;;8.68;6.62;;;;;;;25.82;65.25;99643.30;1860499;77;21318;-72
2021/07/05 04:29:48;;;;;;;8.78;6.47;;;;;;;26.23;63.97;99642.03;1860209;77;20868;-71
2021/07/05 04:32:15;;;;;;;7.28;6.00;;;;;;;26.58;62.83;99640.73;1860519;77;20886;-70
2021/07/05 04:34:41;;;;;;;6.78;5.70;;;;;;;26.95;61.59;99651.56;1860564;77;20875;-71
2021/07/05 04:37:09;;;;;;;7.25;5.92;;;;;;;27.25;60.56;99640.35;1860267;76;21166;-71
2021/07/05 04:39:36;;;;;;;7.20;5.40;;;;;;;27.59;59.76;99633.20;1860378;77;20848;-71
2021/07/05 04:42:04;;;;;;;6.58;5.97;;;;;;;27.93;58.81;99625.52;1853046;77;20914;-71
2021/07/05 04:44:31;;;;;;;10.13;5.35;;;;;;;28.25;57.98;99624.69;1849448;77;20877;-71
2021/07/05 04:46:59;;;;;;;7.90;5.25;;;;;;;28.54;57.11;99626.21;1849760;77;21419;-70
2021/07/05 04:49:27;;;;;;;7.45;4.78;;;;;;;28.80;56.18;99623.03;1849373;77;21083;-71
2021/07/05 04:51:53;;;;;;;10.72;6.00;;;;;;;29.05;55.33;99618.70;1849562;77;20941;-71
2021/07/05 04:54:20;;;;;;;6.97;5.03;;;;;;;29.30;54.69;99613.55;1849376;76;20854;-72
2021/07/05 04:56:48;;;;;;;7.60;5.10;;;;;;;29.52;53.80;99610.47;1849540;76;20893;-72
2021/07/05 04:59:15;;;;;;;4.97;4.42;;;;;;;29.65;53.23;99601.26;1849650;76;20858;-71
2021/07/05 05:01:44;;;;;;;10.18;4.50;;;;;;;29.82;52.73;99601.87;1849391;76;21967;-72
2021/07/05 05:04:14;;;;;;;6.70;4.83;;;;;;;30.04;52.32;99605.49;1849632;77;20916;-73
2021/07/05 05:06:43;;;;;;;6.78;5.12;;;;;;;30.23;51.40;99595.77;1849513;76;21390;-72
2021/07/05 05:09:10;;;;;;;5.50;5.00;;;;;;;30.36;50.97;99599.52;1849420;77;20850;-72
2021/07/05 05:11:38;;;;;;;7.65;5.40;;;;;;;30.48;50.89;99598.06;1849401;77;20874;-74
2021/07/05 05:14:05;;;;;;;9.25;4.33;;;;;;;30.65;50.21;99589.92;1849376;77;21120;-70
2021/07/05 05:16:31;;;;;;;4.70;4.22;;;;;;;30.83;49.69;99590.98;1849346;77;20885;-70
2021/07/05 05:19:00;;;;;;;5.37;4.87;;;;;;;31.02;49.78;99591.53;1849465;77;21418;-72
2021/07/05 05:21:31;;;;;;;7.45;4.70;;;;;;;31.21;48.83;99598.78;1849518;77;20885;-72
2021/07/05 05:23:58;;;;;;;5.70;4.83;;;;;;;31.33;48.25;99602.73;1849549;77;20838;-73
2021/07/05 05:26:25;;;;;;;5.95;5.35;;;;;;;31.43;48.11;99613.70;1849355;77;21058;-71
2021/07/05 05:28:52;;;;;;;6.42;4.85;;;;;;;31.50;47.73;99616.20;1849445;77;20866;-70
2021/07/05 05:31:19;;;;;;;5.20;4.22;;;;;;;31.54;47.80;99619.50;1849463;77;20912;-71
2021/07/05 05:33:46;;;;;;;6.97;5.17;;;;;;;31.55;47.59;99622.52;1849352;77;21179;-72
2021/07/05 05:36:13;;;;;;;5.17;4.58;;;;;;;31.50;47.60;99629.21;1849507;77;21406;-70
2021/07/05 05:38:45;;;;;;;4.85;4.35;;;;;;;31.46;47.82;99636.23;1849441;76;21100;-71
2021/07/05 05:41:09;;;;;;;6.92;5.25;;;;;;;31.36;48.17;99628.77;1850842;75;20903;-72
2021/07/05 05:43:37;;;;;;;9.23;5.72;;;;;;;31.28;48.09;99626.52;1860257;77;20868;-74
2021/07/05 05:46:05;;;;;;;6.12;4.67;;;;;;;31.12;48.35;99616.02;1860056;77;21371;-73
2021/07/05 05:48:32;;;;;;;6.33;5.10;;;;;;;30.99;48.72;99623.16;1860189;77;20911;-74
2021/07/05 05:50:59;;;;;;;8.25;5.22;;;;;;;30.79;49.08;99612.84;1860304;77;21099;-72
2021/07/05 05:53:26;;;;;;;7.83;5.55;;;;;;;30.60;49.58;99610.16;1860188;76;21313;-72
2021/07/05 05:55:53;;;;;;;6.25;5.65;;;;;;;30.27;50.06;99610.45;1860286;76;20906;-73
2021/07/05 05:58:20;;;;;;;6.72;5.25;;;;;;;29.98;50.69;99616.47;1860231;77;20891;-72
2021/07/05 06:00:46;;;;;;;6.70;5.92;;;;;;;29.72;51.54;99609.25;1860493;77;20918;-75
2021/07/05 06:03:13;;;;;;;7.42;6.35;;;;;;;29.47;52.01;99611.73;1860207;77;21112;-73
2021/07/05 06:05:41;;;;;;;11.08;6.50;;;;;;;29.33;52.80;99622.55;1860438;77;20828;-76
2021/07/05 06:08:11;;;;;;;6.62;5.90;;;;;;;29.24;53.14;99622.64;1860175;77;20887;-76
2021/07/05 06:10:38;;;;;;;7.47;5.62;;;;;;;29.17;53.50;99614.67;1860456;77;21337;-77
2021/07/05 06:13:05;;;;;;;6.60;5.90;;;;;;;29.12;53.68;99613.20;1860144;77;20879;-76
2021/07/05 06:15:32;;;;;;;8.13;6.40;;;;;;;29.08;53.88;99611.52;1860578;77;21096;-78
2021/07/05 06:17:59;;;;;;;8.28;6.33;;;;;;;29.02;54.59;99611.63;1860081;77;20808;-78
2021/07/05 06:20:28;;;;;;;8.05;6.20;;;;;;;28.97;54.27;99618.24;1860474;77;21338;-79
2021/07/05 06:22:56;;;;;;;7.42;6.45;;;;;;;28.89;53.99;99622.14;1860221;77;20844;-78
2021/07/05 06:25:23;;;;;;;8.15;7.30;;;;;;;28.78;54.23;99614.34;1860529;77;20879;-79
2021/07/05 06:27:50;;;;;;;6.50;5.87;;;;;;;28.66;55.08;99611.67;1860204;77;21124;-78
2021/07/05 06:30:17;;;;;;;7.53;5.90;;;;;;;28.44;55.40;99616.80;1860564;77;20860;-78
2021/07/05 06:32:44;;;;;;;7.28;6.05;;;;;;;28.29;55.93;99623.98;1860104;76;20863;-77
2021/07/05 06:35:13;;;;;;;6.62;6.03;;;;;;;28.15;56.57;99621.23;1860402;76;20919;-77
2021/07/05 06:37:39;;;;;;;7.05;6.42;;;;;;;28.02;56.55;99624.13;1860262;76;21345;-78
2021/07/05 06:40:07;;;;;;;6.50;5.97;;;;;;;27.85;56.84;99626.66;1860435;77;21087;-77
2021/07/05 06:42:34;;;;;;;6.70;6.08;;;;;;;27.69;57.13;99630.80;1860172;77;20852;-76
2021/07/05 06:45:05;;;;;;;8.00;6.15;;;;;;;27.49;57.41;99621.63;1860216;77;20863;-76
2021/07/05 06:47:32;;;;;;;7.35;6.58;;;;;;;27.31;58.18;99627.05;1860192;77;21325;-76
2021/07/05 06:49:59;;;;;;;10.78;7.00;;;;;;;27.15;59.03;99623.89;1860358;77;20879;-76
2021/07/05 06:52:28;;;;;;;8.43;7.03;;;;;;;27.04;59.42;99625.99;1860212;77;21091;-76
2021/07/05 06:56:57;;;;;;;8.18;6.87;;;;;;;26.90;59.88;99629.33;1816523;79;23378;-76
2021/07/05 06:59:24;;;;;;;7.53;6.80;;;;;;;26.75;60.36;99634.28;1789782;80;21318;-75
2021/07/05 07:01:51;;;;;;;9.35;6.28;;;;;;;26.65;61.01;99626.70;1789664;80;21110;-75
2021/07/05 07:04:18;;;;;;;7.10;6.40;;;;;;;26.57;61.24;99624.28;1790060;80;20979;-75
2021/07/05 07:06:49;;;;;;;7.05;5.80;;;;;;;26.49;61.51;99625.90;1789720;80;20935;-78
2021/07/05 07:09:18;;;;;;;7.37;6.60;;;;;;;26.43;61.82;99620.86;1789612;80;20889;-76
2021/07/05 07:11:45;;;;;;;15.05;6.67;;;;;;;26.41;62.29;99621.61;1789693;80;20923;-76
2021/07/05 07:14:14;;;;;;;7.08;6.47;;;;;;;26.45;62.68;99628.19;1789596;80;20940;-76
2021/07/05 07:16:44;;;;;;;8.25;7.45;;;;;;;26.54;62.95;99627.39;1789429;80;20928;-73
2021/07/05 07:19:17;;;;;;;8.63;6.28;;;;;;;26.68;62.47;99628.96;1789393;80;21494;-71
2021/07/05 07:21:47;;;;;;;;;;;;;;;26.90;61.71;99639.28;1792049;80;20920;-71
2021/07/05 07:24:15;;;;;;;6.40;5.83;;;;;;;27.15;61.14;99637.88;1789910;80;20080;-67
2021/07/05 07:26:43;;;;;;;6.65;5.87;;;;;;;27.32;61.00;99642.15;1789493;80;21818;-68
2021/07/05 07:29:10;;;;;;;7.33;5.97;;;;;;;27.41;60.33;99641.63;1789494;80;21006;-67
2021/07/05 07:31:39;;;;;;;6.97;6.28;;;;;;;27.46;60.16;99640.95;1789618;80;21384;-68
2021/07/05 07:34:07;;;;;;;7.80;6.47;;;;;;;27.44;60.00;99645.21;1789663;80;20879;-66
2021/07/05 07:36:34;;;;;;;6.47;5.58;;;;;;;27.46;59.78;99648.50;1789520;80;20911;-67
2021/07/05 07:39:06;;;;;;;11.25;6.47;;;;;;;27.52;59.61;99641.90;1789513;80;21137;-67
2021/07/05 07:41:31;;;;;;;6.83;5.87;;;;;;;27.59;59.67;99652.05;1788234;80;20998;-68
2021/07/05 07:43:58;;;;;;;7.00;6.30;;;;;;;27.65;59.62;99650.62;1789193;80;21424;-68
2021/07/05 07:46:25;;;;;;;12.13;5.87;;;;;;;27.72;59.56;99647.02;1789502;80;20860;-67
2021/07/05 07:48:58;;;;;;;7.55;6.12;;;;;;;27.84;59.77;99650.09;1789798;80;20983;-70
2021/07/05 07:51:25;;;;;;;9.00;6.08;;;;;;;28.04;59.26;99649.80;1789657;80;21160;-68
2021/07/05 07:53:54;;;;;;;6.60;5.10;;;;;;;28.48;59.17;99649.03;1789467;79;21420;-68
2021/07/05 07:56:21;;;;;;;9.25;5.67;;;;;;;28.87;58.26;99646.66;1786164;80;20899;-69
2021/07/05 07:58:48;;;;;;;7.83;5.90;;;;;;;29.31;56.50;99647.62;1784538;80;20900;-68
2021/07/05 08:01:15;;;;;;;9.13;5.22;;;;;;;29.62;55.86;99646.34;1784476;80;20931;-69
2021/07/05 08:03:43;;;;;;;6.47;5.30;;;;;;;29.87;55.02;99644.66;1756299;80;20844;-68
2021/07/05 08:06:11;;;;;;;6.53;5.33;;;;;;;30.12;53.99;99652.39;1784335;80;20932;-69
2021/07/05 08:08:38;;;;;;;6.33;5.45;;;;;;;30.34;53.59;99659.28;1783929;80;20904;-71
2021/07/05 08:11:09;;;;;;;8.03;5.42;;;;;;;30.43;52.76;99652.11;1783915;80;21378;-71
2021/07/05 08:13:36;;;;;;;6.83;4.60;;;;;;;30.53;52.21;99658.51;1784306;80;20892;-68
2021/07/05 08:16:05;;;;;;;6.62;5.20;;;;;;;30.61;51.88;99662.67;1780747;80;21514;-71
2021/07/05 08:18:33;;;;;;;11.65;5.85;;;;;;;30.59;51.78;99656.68;1783570;80;20928;-69
2021/07/05 08:21:00;;;;;;;6.80;5.47;;;;;;;30.60;51.42;99654.81;1784243;80;21018;-71
2021/07/05 08:23:27;;;;;;;12.90;5.80;;;;;;;30.63;51.41;99651.06;1783872;80;20865;-70
2021/07/05 08:25:54;;;;;;;7.95;5.10;;;;;;;30.66;51.83;99663.27;1783803;80;20837;-71
2021/07/05 08:28:23;;;;;;;5.83;5.28;;;;;;;30.86;52.14;99655.50;1783938;80;22111;-70
2021/07/05 08:30:55;;;;;;;5.25;4.92;;;;;;;30.97;51.41;99653.73;1783751;80;20995;-70
2021/07/05 08:33:22;;;;;;;5.70;5.12;;;;;;;31.07;51.02;99659.30;1756366;80;20968;-70
2021/07/05 08:35:49;;;;;;;7.15;5.33;;;;;;;31.26;50.59;99656.27;1784172;79;20935;-70
2021/07/05 08:38:16;;;;;;;5.47;4.70;;;;;;;31.52;50.78;99656.88;1783825;80;20853;-70
2021/07/05 08:40:43;;;;;;;5.83;4.42;;;;;;;31.81;50.27;99651.22;1784067;80;21099;-70
2021/07/05 08:43:10;;;;;;;5.00;4.17;;;;;;;32.18;48.57;99645.91;1783875;80;20912;-70
2021/07/05 08:45:37;;;;;;;7.90;5.87;;;;;;;32.30;48.11;99636.22;1784105;80;21402;-71
2021/07/05 08:48:04;;;;;;;5.53;4.40;;;;;;;32.41;48.17;99635.77;1783965;80;20955;-71
2021/07/05 08:50:31;;;;;;;4.83;4.40;;;;;;;32.58;46.98;99634.29;1784303;80;20888;-69
2021/07/05 08:52:58;;;;;;;8.88;4.90;;;;;;;32.81;47.30;99633.06;1783859;80;21185;-71
2021/07/05 08:55:27;;;;;;;6.92;4.50;;;;;;;33.16;47.56;99632.98;1782736;80;21118;-70
2021/07/05 08:57:54;;;;;;;5.50;4.22;;;;;;;33.45;45.98;99627.37;1775393;80;21359;-72
2021/07/05 09:00:25;;;;;;;7.87;5.10;;;;;;;33.62;45.91;99627.18;1775391;80;20940;-71
2021/07/05 09:02:52;;;;;;;7.37;4.85;;;;;;;33.66;45.61;99623.36;1775359;80;20975;-70
2021/07/05 09:05:19;;;;;;;5.20;4.50;;;;;;;33.54;45.27;99623.59;1775516;80;21117;-69
2021/07/05 09:08:10;;;;;;;4.83;4.40;;;;;;;33.40;45.56;99619.21;1775578;80;20893;-73
2021/07/05 09:10:52;;;;;;;4.70;4.30;;;;;;;33.29;46.03;99618.09;1775304;80;21390;-75
2021/07/05 09:13:24;;;;;;;4.72;4.33;;;;;;;33.22;45.62;99615.62;1775700;80;20956;-74
2021/07/05 09:15:58;;;;;;;6.20;4.22;;;;;;;33.11;45.62;99610.70;1775531;80;20896;-72
2021/07/05 09:18:29;;;;;;;10.80;5.00;;;;;;;33.20;45.62;99605.56;1775708;80;21989;-75
2021/07/05 09:21:09;;;;;;;7.47;4.08;;;;;;;33.40;45.49;99602.09;1775333;80;20885;-74
2021/07/05 09:23:36;;;;;;;5.33;4.10;;;;;;;33.58;45.65;99610.28;1760837;80;21063;-75
2021/07/05 09:26:03;;;;;;;4.97;3.92;;;;;;;33.68;45.27;99611.67;1775303;80;20959;-75
2021/07/05 09:28:37;;;;;;;4.87;4.12;;;;;;;33.63;44.63;99608.95;1775457;80;20948;-75
2021/07/05 09:31:04;;;;;;;5.58;4.08;;;;;;;33.41;44.62;99605.07;1775480;80;21147;-72
2021/07/05 09:33:30;;;;;;;11.53;4.62;;;;;;;33.07;45.06;99607.42;1775675;80;21006;-76
2021/07/05 09:36:00;;;;;;;7.22;4.50;;;;;;;32.84;46.49;99601.31;1775267;80;20873;-73
2021/07/05 09:38:37;;;;;;;4.80;4.30;;;;;;;32.71;45.98;99597.72;1770890;79;20897;-73
2021/07/05 09:41:29;;;;;;;8.23;5.00;;;;;;;32.59;46.50;99595.19;1769649;80;20920;-73
2021/07/05 09:44:00;;;;;;;5.03;4.53;;;;;;;32.53;46.47;99591.64;1770972;81;21142;-75
2021/07/05 09:46:57;;;;;;;6.00;4.37;;;;;;;32.44;46.93;99590.47;1770328;80;21430;-73
2021/07/05 09:49:33;;;;;;;9.70;5.15;;;;;;;32.39;47.07;99597.20;1770569;81;20921;-73
2021/07/05 09:52:26;;;;;;;5.95;4.12;;;;;;;32.43;47.24;99599.68;1770365;80;21532;-74
2021/07/05 09:54:59;;;;;;;16.82;5.05;;;;;;;32.51;47.27;99590.24;1770755;81;20952;-74
2021/07/05 09:57:48;;;;;;;7.60;3.95;;;;;;;32.80;46.16;99590.16;1773221;80;21164;-72
2021/07/05 10:00:25;;;;;;;5.15;3.80;;;;;;;33.01;46.23;99588.33;1775781;80;21009;-74
2021/07/05 10:03:05;;;;;;;6.87;3.75;;;;;;;33.32;45.70;99591.19;1775726;80;20936;-73
2021/07/05 10:05:37;;;;;;;6.35;3.80;;;;;;;33.59;45.39;99592.90;1775778;80;20917;-75
2021/07/05 10:08:09;;;;;;;10.05;4.28;;;;;;;33.70;45.74;99587.75;1775865;80;21390;-74
2021/07/05 10:10:40;;;;;;;4.20;3.75;;;;;;;33.64;44.41;99592.94;1775920;80;21215;-74
2021/07/05 10:13:12;;;;;;;5.58;3.87;;;;;;;33.64;44.41;99592.94;1776039;80;21409;-74
2021/07/05 10:15:40;;;;;;;6.47;3.75;;;;;;;33.43;44.80;99594.20;1776041;80;20928;-75
2021/07/05 10:18:08;;;;;;;3.98;3.65;;;;;;;33.20;45.35;99586.55;1775775;80;20905;-75
2021/07/05 10:20:41;;;;;;;9.80;4.20;;;;;;;32.97;45.39;99587.25;1775931;80;20928;-75
2021/07/05 10:23:13;;;;;;;8.55;4.92;;;;;;;32.75;46.44;99587.94;1776488;80;21076;-68
2021/07/05 10:25:45;;;;;;;5.28;4.22;;;;;;;32.45;46.34;99586.67;1775324;80;20900;-68
2021/07/05 10:28:12;;;;;;;6.75;3.85;;;;;;;32.28;47.12;99595.50;1776352;80;20877;-70
2021/07/05 10:30:40;;;;;;;4.58;3.83;;;;;;;32.11;47.43;99594.31;1775992;80;21410;-76
2021/07/05 10:33:07;;;;;;;7.85;4.22;;;;;;;32.03;48.10;99596.95;1775876;80;21421;-73
2021/07/05 10:35:48;;;;;;;7.75;4.35;;;;;;;31.94;48.47;99584.91;1775865;80;21528;-74
2021/07/05 10:38:29;;;;;;;4.92;3.92;;;;;;;31.80;48.84;99581.27;1776024;80;20880;-74
2021/07/05 10:40:58;;;;;;;8.43;4.53;;;;;;;31.74;48.88;99583.65;1775888;80;20865;-74
2021/07/05 10:44:02;;;;;;;8.73;4.65;;;;;;;31.72;48.34;99583.63;1748482;80;20943;-72
2021/07/05 10:46:45;;;;;;;5.70;4.37;;;;;;;31.68;47.86;99589.28;1774282;80;20944;-74
2021/07/05 10:49:34;;;;;;;7.00;5.20;;;;;;;31.65;49.25;99593.33;1776090;80;21153;-73
2021/07/05 10:52:07;;;;;;;7.03;4.35;;;;;;;31.67;48.48;99584.41;1776003;80;21019;-73
2021/07/05 10:54:50;;;;;;;9.40;4.45;;;;;;;31.76;48.07;99581.50;1775496;80;20923;-74
2021/07/05 10:57:25;;;;;;;10.15;4.85;;;;;;;31.97;48.68;99577.12;1775503;80;20980;-74
2021/07/05 10:59:52;;;;;;;7.05;4.33;;;;;;;32.11;48.10;99576.67;1773092;80;20933;-73
2021/07/05 11:02:41;;;;;;;5.45;4.28;;;;;;;32.21;48.10;99569.41;1775847;80;21946;-73
2021/07/05 11:05:29;;;;;;;6.53;4.65;;;;;;;32.24;47.60;99566.73;1775760;80;20885;-77
2021/07/05 11:07:59;;;;;;;8.83;4.47;;;;;;;32.21;46.61;99560.45;1775537;80;20915;-73
2021/07/05 11:10:30;;;;;;;6.75;4.08;;;;;;;32.08;45.80;99565.78;1747863;80;20923;-74
2021/07/05 11:13:04;;;;;;;7.50;5.03;;;;;;;31.90;46.56;99552.59;1775801;80;20884;-77
2021/07/05 11:15:55;;;;;;;5.72;4.20;;;;;;;31.76;46.71;99557.09;1776139;80;21091;-75
2021/07/05 11:18:44;;;;;;;14.73;5.90;;;;;;;31.78;47.52;99556.30;1775564;80;20872;-76
2021/07/05 11:21:45;;;;;;;7.40;5.42;;;;;;;31.97;46.70;99552.70;1775796;80;20904;-76
2021/07/05 11:24:13;;;;;;;8.18;3.15;;;;;;;32.18;46.13;99555.02;1775712;80;21553;-76
2021/07/05 11:26:41;;;;;;;4.70;3.52;;;;;;;32.32;46.64;99553.20;1776170;80;21253;-79
2021/07/05 11:29:24;;;;;;;4.87;3.42;;;;;;;32.33;45.97;99552.95;1775870;80;21083;-81
2021/07/05 11:31:58;;;;;;;4.37;4.05;;;;;;;32.33;46.04;99541.28;1776072;80;21486;-76
2021/07/05 11:34:35;;;;;;;3.85;3.50;;;;;;;32.27;45.02;99537.70;1775672;80;20853;-75
2021/07/05 11:37:18;;;;;;;7.75;4.20;;;;;;;32.26;46.54;99532.53;1775746;80;21410;-74
2021/07/05 11:39:52;;;;;;;4.37;3.83;;;;;;;32.23;46.25;99539.30;1776107;80;21370;-75
2021/07/05 11:42:23;;;;;;;7.62;3.72;;;;;;;32.17;45.80;99542.55;1776205;80;21975;-75
2021/07/05 11:44:56;;;;;;;10.38;4.00;;;;;;;32.07;46.47;99545.17;1771880;80;21297;-79
2021/07/05 11:47:42;;;;;;;;;;;;;;;31.96;46.22;99544.79;1778943;80;21401;-74